sensor_id;sensor_type;location;lat;lon;timestamp;pressure;altitude;pressure_sealevel;temperature;humidity
72961;BME280;61141;46.204;19.774;2023-04-01T00:02:33;99170.72;;;10.66;97.85
72961;BME280;61141;46.204;19.774;2023-04-01T00:05:36;99178.16;;;10.58;97.26
72961;BME280;61141;46.204;19.774;2023-04-01T00:08:39;99167.25;;;10.47;97.53
72961;BME280;61141;46.204;19.774;2023-04-01T00:11:42;99180.22;;;10.36;97.89
72961;BME280;61141;46.204;19.774;2023-04-01T00:14:46;99179.78;;;10.45;97.49
72961;BME280;61141;46.204;19.774;2023-04-01T00:17:49;99167.31;;;10.40;99.07
72961;BME280;61141;46.204;19.774;2023-04-01T00:20:52;99159.06;;;10.44;99.08
72961;BME280;61141;46.204;19.774;2023-04-01T00:23:56;99163.34;;;10.52;98.72
72961;BME280;61141;46.204;19.774;2023-04-01T00:26:58;99163.75;;;10.50;98.95
72961;BME280;61141;46.204;19.774;2023-04-01T00:30:02;99159.44;;;10.53;98.80
72961;BME280;61141;46.204;19.774;2023-04-01T00:33:05;99152.38;;;10.59;97.59
72961;BME280;61141;46.204;19.774;2023-04-01T00:36:09;99149.19;;;10.64;97.08
72961;BME280;61141;46.204;19.774;2023-04-01T00:39:12;99159.03;;;10.54;98.38
72961;BME280;61141;46.204;19.774;2023-04-01T00:42:15;99154.72;;;10.53;97.90
72961;BME280;61141;46.204;19.774;2023-04-01T00:48:33;99164.91;;;10.53;96.98
72961;BME280;61141;46.204;19.774;2023-04-01T00:51:38;99146.63;;;10.32;98.03
72961;BME280;61141;46.204;19.774;2023-04-01T00:54:46;99159.12;;;10.26;98.73
72961;BME280;61141;46.204;19.774;2023-04-01T00:57:50;99153.72;;;10.16;99.68
72961;BME280;61141;46.204;19.774;2023-04-01T01:00:56;99158.72;;;10.31;99.66
72961;BME280;61141;46.204;19.774;2023-04-01T01:04:01;99161.84;;;10.37;99.83
72961;BME280;61141;46.204;19.774;2023-04-01T01:11:00;99148.88;;;10.48;98.41
72961;BME280;61141;46.204;19.774;2023-04-01T01:27:32;99136.78;;;10.49;99.62
72961;BME280;61141;46.204;19.774;2023-04-01T01:30:46;99131.69;;;10.44;100.00
72961;BME280;61141;46.204;19.774;2023-04-01T01:37:17;99131.31;;;10.42;100.00
72961;BME280;61141;46.204;19.774;2023-04-01T01:40:22;99145.00;;;10.45;100.00
72961;BME280;61141;46.204;19.774;2023-04-01T01:43:29;99142.22;;;10.52;99.40
72961;BME280;61141;46.204;19.774;2023-04-01T01:46:34;99145.75;;;10.49;99.34
72961;BME280;61141;46.204;19.774;2023-04-01T01:49:39;99143.00;;;10.53;98.70
72961;BME280;61141;46.204;19.774;2023-04-01T01:52:43;99143.34;;;10.58;97.94
72961;BME280;61141;46.204;19.774;2023-04-01T01:55:47;99134.41;;;10.54;98.77
72961;BME280;61141;46.204;19.774;2023-04-01T01:58:54;99130.88;;;10.54;98.96
72961;BME280;61141;46.204;19.774;2023-04-01T02:02:00;99118.78;;;10.48;99.37
72961;BME280;61141;46.204;19.774;2023-04-01T02:05:15;99117.63;;;10.45;99.23
72961;BME280;61141;46.204;19.774;2023-04-01T02:12:02;99095.72;;;10.38;98.77
72961;BME280;61141;46.204;19.774;2023-04-01T02:15:12;99104.66;;;10.53;98.17
72961;BME280;61141;46.204;19.774;2023-04-01T02:18:18;99105.06;;;10.51;97.99
72961;BME280;61141;46.204;19.774;2023-04-01T02:21:24;99105.03;;;10.55;97.65
72961;BME280;61141;46.204;19.774;2023-04-01T02:24:30;99109.34;;;10.56;97.45
72961;BME280;61141;46.204;19.774;2023-04-01T02:27:34;99103.94;;;10.45;98.52
72961;BME280;61141;46.204;19.774;2023-04-01T02:30:38;99112.13;;;10.45;99.14
72961;BME280;61141;46.204;19.774;2023-04-01T02:33:43;99115.63;;;10.53;98.44
72961;BME280;61141;46.204;19.774;2023-04-01T02:36:47;99109.00;;;10.47;98.24
72961;BME280;61141;46.204;19.774;2023-04-01T02:39:51;99103.94;;;10.45;98.00
72961;BME280;61141;46.204;19.774;2023-04-01T02:42:53;99121.50;;;10.48;98.88
72961;BME280;61141;46.204;19.774;2023-04-01T02:45:57;99130.09;;;10.57;98.15
72961;BME280;61141;46.204;19.774;2023-04-01T02:48:59;99132.03;;;10.53;98.49
72961;BME280;61141;46.204;19.774;2023-04-01T02:52:04;99127.03;;;10.41;99.94
72961;BME280;61141;46.204;19.774;2023-04-01T02:55:07;99127.00;;;10.44;99.73
72961;BME280;61141;46.204;19.774;2023-04-01T02:58:11;99128.16;;;10.47;99.44
72961;BME280;61141;46.204;19.774;2023-04-01T03:01:14;99127.41;;;10.43;99.90
72961;BME280;61141;46.204;19.774;2023-04-01T03:04:17;99134.41;;;10.44;100.00
72961;BME280;61141;46.204;19.774;2023-04-01T03:07:20;99127.78;;;10.48;99.68
72961;BME280;61141;46.204;19.774;2023-04-01T03:10:23;99119.56;;;10.45;100.00
72961;BME280;61141;46.204;19.774;2023-04-01T03:13:26;99122.31;;;10.45;100.00
72961;BME280;61141;46.204;19.774;2023-04-01T03:16:29;99113.28;;;10.48;100.00
72961;BME280;61141;46.204;19.774;2023-04-01T03:19:32;99120.34;;;10.42;100.00
72961;BME280;61141;46.204;19.774;2023-04-01T03:22:37;99114.88;;;10.42;100.00
72961;BME280;61141;46.204;19.774;2023-04-01T03:25:44;99122.31;;;10.41;100.00
72961;BME280;61141;46.204;19.774;2023-04-01T03:28:47;99112.53;;;10.44;100.00
72961;BME280;61141;46.204;19.774;2023-04-01T03:31:50;99110.97;;;10.46;100.00
72961;BME280;61141;46.204;19.774;2023-04-01T03:34:53;99119.16;;;10.50;100.00
72961;BME280;61141;46.204;19.774;2023-04-01T03:37:56;99121.09;;;10.53;100.00
72961;BME280;61141;46.204;19.774;2023-04-01T03:40:59;99119.19;;;10.46;100.00
72961;BME280;61141;46.204;19.774;2023-04-01T03:44:02;99121.88;;;10.50;100.00
72961;BME280;61141;46.204;19.774;2023-04-01T03:47:05;99121.50;;;10.48;100.00
72961;BME280;61141;46.204;19.774;2023-04-01T03:50:08;99114.09;;;10.45;100.00
72961;BME280;61141;46.204;19.774;2023-04-01T03:53:12;99115.25;;;10.44;100.00
72961;BME280;61141;46.204;19.774;2023-04-01T03:56:16;99116.03;;;10.48;100.00
72961;BME280;61141;46.204;19.774;2023-04-01T03:59:19;99112.13;;;10.45;100.00
72961;BME280;61141;46.204;19.774;2023-04-01T04:02:21;99119.97;;;10.43;100.00
72961;BME280;61141;46.204;19.774;2023-04-01T04:05:25;99096.91;;;10.41;100.00
72961;BME280;61141;46.204;19.774;2023-04-01T04:08:28;99101.25;;;10.35;100.00
72961;BME280;61141;46.204;19.774;2023-04-01T04:11:31;99092.63;;;10.36;100.00
72961;BME280;61141;46.204;19.774;2023-04-01T04:14:35;99117.25;;;10.40;100.00
72961;BME280;61141;46.204;19.774;2023-04-01T04:17:38;99109.81;;;10.40;100.00
72961;BME280;61141;46.204;19.774;2023-04-01T04:20:45;99107.94;;;10.27;100.00
72961;BME280;61141;46.204;19.774;2023-04-01T04:23:54;99101.28;;;10.24;100.00
72961;BME280;61141;46.204;19.774;2023-04-01T04:26:57;99093.09;;;10.21;100.00
72961;BME280;61141;46.204;19.774;2023-04-01T04:30:00;99107.88;;;10.30;100.00
72961;BME280;61141;46.204;19.774;2023-04-01T04:33:05;99093.81;;;10.32;100.00
72961;BME280;61141;46.204;19.774;2023-04-01T04:36:08;99088.72;;;10.34;100.00
72961;BME280;61141;46.204;19.774;2023-04-01T04:39:11;99080.13;;;10.35;100.00
72961;BME280;61141;46.204;19.774;2023-04-01T04:42:14;99076.97;;;10.37;100.00
72961;BME280;61141;46.204;19.774;2023-04-01T04:45:17;99090.72;;;10.30;100.00
72961;BME280;61141;46.204;19.774;2023-04-01T04:48:21;99096.94;;;10.34;100.00
72961;BME280;61141;46.204;19.774;2023-04-01T04:51:24;99097.72;;;10.38;100.00
72961;BME280;61141;46.204;19.774;2023-04-01T04:54:27;99101.25;;;10.31;100.00
72961;BME280;61141;46.204;19.774;2023-04-01T04:57:30;99096.13;;;10.37;100.00
72961;BME280;61141;46.204;19.774;2023-04-01T05:00:34;99100.84;;;10.36;100.00
72961;BME280;61141;46.204;19.774;2023-04-01T05:03:37;99108.63;;;10.41;100.00
72961;BME280;61141;46.204;19.774;2023-04-01T05:06:42;99103.56;;;10.40;100.00
72961;BME280;61141;46.204;19.774;2023-04-01T05:09:45;99104.72;;;10.46;100.00
72961;BME280;61141;46.204;19.774;2023-04-01T05:12:49;99088.78;;;10.20;100.00
72961;BME280;61141;46.204;19.774;2023-04-01T05:15:52;99091.50;;;10.27;100.00
72961;BME280;61141;46.204;19.774;2023-04-01T05:18:55;99084.41;;;10.36;100.00
72961;BME280;61141;46.204;19.774;2023-04-01T05:21:58;99094.91;;;10.48;100.00
72961;BME280;61141;46.204;19.774;2023-04-01T05:25:01;99100.75;;;10.57;100.00
72961;BME280;61141;46.204;19.774;2023-04-01T05:28:04;99097.59;;;10.59;100.00
72961;BME280;61141;46.204;19.774;2023-04-01T05:31:08;99097.19;;;10.60;100.00
72961;BME280;61141;46.204;19.774;2023-04-01T05:34:13;99088.16;;;10.67;100.00
72961;BME280;61141;46.204;19.774;2023-04-01T05:37:16;99075.69;;;10.63;100.00
72961;BME280;61141;46.204;19.774;2023-04-01T05:40:19;99075.25;;;10.68;100.00
72961;BME280;61141;46.204;19.774;2023-04-01T05:43:23;99085.41;;;10.74;100.00
72961;BME280;61141;46.204;19.774;2023-04-01T05:46:27;99081.47;;;10.72;100.00
72961;BME280;61141;46.204;19.774;2023-04-01T05:49:31;99078.34;;;10.70;100.00
72961;BME280;61141;46.204;19.774;2023-04-01T05:52:36;99079.16;;;10.70;100.00
72961;BME280;61141;46.204;19.774;2023-04-01T05:55:39;99093.59;;;10.74;100.00
72961;BME280;61141;46.204;19.774;2023-04-01T05:58:41;99084.59;;;10.74;100.00
72961;BME280;61141;46.204;19.774;2023-04-01T06:01:45;99086.94;;;10.75;100.00
72961;BME280;61141;46.204;19.774;2023-04-01T06:04:49;99089.66;;;10.75;100.00
72961;BME280;61141;46.204;19.774;2023-04-01T06:07:59;99079.94;;;10.67;100.00
72961;BME280;61141;46.204;19.774;2023-04-01T06:24:42;99079.84;;;10.85;100.00
72961;BME280;61141;46.204;19.774;2023-04-01T06:59:08;99092.63;;;11.02;98.97
72961;BME280;61141;46.204;19.774;2023-04-01T07:02:36;99109.47;;;11.00;99.04
72961;BME280;61141;46.204;19.774;2023-04-01T07:05:42;99109.50;;;10.97;98.50
72961;BME280;61141;46.204;19.774;2023-04-01T07:08:45;99107.59;;;10.90;99.99
72961;BME280;61141;46.204;19.774;2023-04-01T07:11:50;99108.66;;;11.03;97.40
72961;BME280;61141;46.204;19.774;2023-04-01T07:14:58;99113.34;;;11.06;96.25
72961;BME280;61141;46.204;19.774;2023-04-01T07:18:21;99105.50;;;11.08;97.22
72961;BME280;61141;46.204;19.774;2023-04-01T07:24:37;99087.97;;;10.95;97.91
72961;BME280;61141;46.204;19.774;2023-04-01T07:27:43;99105.09;;;11.10;97.52
72961;BME280;61141;46.204;19.774;2023-04-01T07:30:57;99106.22;;;11.16;96.38
72961;BME280;61141;46.204;19.774;2023-04-01T07:51:08;99125.28;;;11.30;96.63
72961;BME280;61141;46.204;19.774;2023-04-01T07:54:45;99126.84;;;11.35;95.58
72961;BME280;61141;46.204;19.774;2023-04-01T07:58:07;99115.81;;;11.42;95.05
72961;BME280;61141;46.204;19.774;2023-04-01T08:04:47;99128.69;;;11.48;93.95
72961;BME280;61141;46.204;19.774;2023-04-01T08:21:51;99130.56;;;11.55;93.95
72961;BME280;61141;46.204;19.774;2023-04-01T08:24:57;99118.81;;;11.54;93.57
72961;BME280;61141;46.204;19.774;2023-04-01T08:28:13;99121.91;;;11.60;93.69
72961;BME280;61141;46.204;19.774;2023-04-01T08:31:29;99116.41;;;11.60;92.88
72961;BME280;61141;46.204;19.774;2023-04-01T08:34:38;99121.84;;;11.70;92.91
72961;BME280;61141;46.204;19.774;2023-04-01T08:37:44;99115.94;;;11.68;93.37
72961;BME280;61141;46.204;19.774;2023-04-01T08:41:06;99117.19;;;11.60;94.07
72961;BME280;61141;46.204;19.774;2023-04-01T08:48:07;99118.34;;;11.70;93.74
72961;BME280;61141;46.204;19.774;2023-04-01T09:15:27;99129.41;;;12.00;91.50
72961;BME280;61141;46.204;19.774;2023-04-01T09:26:30;99117.34;;;12.24;88.87
72961;BME280;61141;46.204;19.774;2023-04-01T09:29:18;99122.53;;;12.15;90.08
72961;BME280;61141;46.204;19.774;2023-04-01T09:42:43;99108.31;;;12.24;88.64
72961;BME280;61141;46.204;19.774;2023-04-01T10:36:57;99110.47;;;13.27;77.16
72961;BME280;61141;46.204;19.774;2023-04-01T10:50:34;99115.97;;;13.73;74.55
72961;BME280;61141;46.204;19.774;2023-04-01T10:54:04;99113.50;;;13.79;75.18
72961;BME280;61141;46.204;19.774;2023-04-01T11:28:34;99120.31;;;13.24;72.64
72961;BME280;61141;46.204;19.774;2023-04-01T11:35:38;99120.59;;;13.33;71.27
72961;BME280;61141;46.204;19.774;2023-04-01T11:42:17;99119.25;;;13.65;70.86
72961;BME280;61141;46.204;19.774;2023-04-01T11:48:58;99121.94;;;13.45;72.28
72961;BME280;61141;46.204;19.774;2023-04-01T11:52:51;99128.53;;;13.51;71.60
72961;BME280;61141;46.204;19.774;2023-04-01T12:03:07;99141.84;;;13.29;73.57
72961;BME280;61141;46.204;19.774;2023-04-01T12:12:59;99131.09;;;13.62;70.12
72961;BME280;61141;46.204;19.774;2023-04-01T12:16:55;99133.00;;;13.65;69.08
72961;BME280;61141;46.204;19.774;2023-04-01T12:30:32;99124.94;;;13.54;69.61
72961;BME280;61141;46.204;19.774;2023-04-01T12:57:18;99126.03;;;14.03;68.23
72961;BME280;61141;46.204;19.774;2023-04-01T13:03:52;99124.84;;;14.04;66.34
72961;BME280;61141;46.204;19.774;2023-04-01T13:11:13;99131.22;;;14.21;66.18
72961;BME280;61141;46.204;19.774;2023-04-01T13:14:36;99137.44;;;14.25;67.08
72961;BME280;61141;46.204;19.774;2023-04-01T13:17:53;99130.78;;;14.02;65.96
72961;BME280;61141;46.204;19.774;2023-04-01T13:21:13;99134.75;;;14.21;64.13
72961;BME280;61141;46.204;19.774;2023-04-01T13:27:50;99143.00;;;14.21;63.71
72961;BME280;61141;46.204;19.774;2023-04-01T13:34:35;99137.34;;;14.28;63.53
72961;BME280;61141;46.204;19.774;2023-04-01T13:44:16;99151.28;;;14.21;65.01
72961;BME280;61141;46.204;19.774;2023-04-01T13:47:47;99147.09;;;14.13;64.58
72961;BME280;61141;46.204;19.774;2023-04-01T13:54:54;99153.50;;;14.06;66.45
72961;BME280;61141;46.204;19.774;2023-04-01T14:02:14;99149.84;;;14.13;66.52
72961;BME280;61141;46.204;19.774;2023-04-01T14:05:15;99150.47;;;14.01;66.05
72961;BME280;61141;46.204;19.774;2023-04-01T14:15:49;99142.97;;;14.01;62.99
72961;BME280;61141;46.204;19.774;2023-04-01T14:19:20;99137.13;;;13.99;62.85
72961;BME280;61141;46.204;19.774;2023-04-01T14:23:01;99130.78;;;14.02;64.68
72961;BME280;61141;46.204;19.774;2023-04-01T14:33:19;99139.72;;;14.49;63.17
72961;BME280;61141;46.204;19.774;2023-04-01T14:40:34;99130.81;;;14.42;64.24
72961;BME280;61141;46.204;19.774;2023-04-01T14:50:50;99125.44;;;14.54;63.87
72961;BME280;61141;46.204;19.774;2023-04-01T14:57:15;99115.91;;;14.39;62.72
72961;BME280;61141;46.204;19.774;2023-04-01T15:00:19;99127.56;;;14.27;64.52
72961;BME280;61141;46.204;19.774;2023-04-01T15:07:00;99124.44;;;14.45;62.93
72961;BME280;61141;46.204;19.774;2023-04-01T15:13:15;99124.09;;;14.62;61.57
72961;BME280;61141;46.204;19.774;2023-04-01T15:16:34;99120.84;;;14.48;62.31
72961;BME280;61141;46.204;19.774;2023-04-01T15:34:06;99114.00;;;14.36;62.51
72961;BME280;61141;46.204;19.774;2023-04-01T15:37:50;99113.25;;;14.36;61.76
72961;BME280;61141;46.204;19.774;2023-04-01T15:41:17;99127.91;;;14.29;63.28
72961;BME280;61141;46.204;19.774;2023-04-01T15:44:41;99124.34;;;14.29;61.43
72961;BME280;61141;46.204;19.774;2023-04-01T16:05:51;99141.25;;;14.11;62.25
72961;BME280;61141;46.204;19.774;2023-04-01T16:09:22;99145.31;;;14.03;62.76
72961;BME280;61141;46.204;19.774;2023-04-01T16:15:47;99151.75;;;13.96;62.42
72961;BME280;61141;46.204;19.774;2023-04-01T16:22:29;99157.44;;;13.86;63.36
72961;BME280;61141;46.204;19.774;2023-04-01T16:26:08;99170.72;;;13.91;62.42
72961;BME280;61141;46.204;19.774;2023-04-01T16:33:01;99170.97;;;13.77;63.83
72961;BME280;61141;46.204;19.774;2023-04-01T16:35:56;99174.25;;;13.68;64.31
72961;BME280;61141;46.204;19.774;2023-04-01T16:39:09;99176.81;;;13.56;65.75
72961;BME280;61141;46.204;19.774;2023-04-01T16:55:18;99195.41;;;12.91;74.02
72961;BME280;61141;46.204;19.774;2023-04-01T16:58:26;99204.62;;;12.77;75.20
72961;BME280;61141;46.204;19.774;2023-04-01T17:01:49;99204.31;;;12.68;75.94
72961;BME280;61141;46.204;19.774;2023-04-01T17:05:08;99209.84;;;12.65;77.15
72961;BME280;61141;46.204;19.774;2023-04-01T17:15:30;99214.38;;;12.48;77.97
72961;BME280;61141;46.204;19.774;2023-04-01T17:18:56;99222.31;;;12.39;78.30
72961;BME280;61141;46.204;19.774;2023-04-01T17:22:27;99228.66;;;12.32;78.21
72961;BME280;61141;46.204;19.774;2023-04-01T17:29:01;99237.38;;;12.24;78.07
72961;BME280;61141;46.204;19.774;2023-04-01T17:32:27;99241.00;;;12.14;79.11
72961;BME280;61141;46.204;19.774;2023-04-01T17:35:39;99245.31;;;12.15;78.18
72961;BME280;61141;46.204;19.774;2023-04-01T17:38:56;99250.06;;;12.11;78.13
72961;BME280;61141;46.204;19.774;2023-04-01T17:42:15;99246.25;;;12.01;78.75
72961;BME280;61141;46.204;19.774;2023-04-01T17:45:31;99256.94;;;11.85;79.54
72961;BME280;61141;46.204;19.774;2023-04-01T17:48:49;99269.41;;;11.93;78.24
72961;BME280;61141;46.204;19.774;2023-04-01T17:55:55;99277.81;;;11.72;79.01
72961;BME280;61141;46.204;19.774;2023-04-01T18:05:52;99284.09;;;11.69;77.22
72961;BME280;61141;46.204;19.774;2023-04-01T18:22:59;99294.47;;;11.30;77.92
72961;BME280;61141;46.204;19.774;2023-04-01T18:26:12;99303.91;;;11.32;77.70
72961;BME280;61141;46.204;19.774;2023-04-01T18:32:35;99312.16;;;11.21;77.75
72961;BME280;61141;46.204;19.774;2023-04-01T18:38:57;99316.94;;;11.07;78.12
72961;BME280;61141;46.204;19.774;2023-04-01T18:42:14;99324.78;;;11.01;77.99
72961;BME280;61141;46.204;19.774;2023-04-01T18:45:26;99320.09;;;10.95;78.46
72961;BME280;61141;46.204;19.774;2023-04-01T18:51:55;99331.09;;;10.84;78.77
72961;BME280;61141;46.204;19.774;2023-04-01T18:58:22;99333.84;;;10.74;79.27
72961;BME280;61141;46.204;19.774;2023-04-01T19:02:08;99327.22;;;10.64;79.70
72961;BME280;61141;46.204;19.774;2023-04-01T19:11:38;99338.19;;;10.53;80.82
72961;BME280;61141;46.204;19.774;2023-04-01T19:21:16;99344.44;;;10.54;81.23
72961;BME280;61141;46.204;19.774;2023-04-01T19:24:49;99344.44;;;10.47;81.26
72961;BME280;61141;46.204;19.774;2023-04-01T19:37:54;99362.84;;;10.15;82.78
72961;BME280;61141;46.204;19.774;2023-04-01T19:41:21;99365.50;;;9.97;83.73
72961;BME280;61141;46.204;19.774;2023-04-01T19:44:43;99372.16;;;9.92;84.11
72961;BME280;61141;46.204;19.774;2023-04-01T20:01:15;99378.75;;;9.70;85.87
72961;BME280;61141;46.204;19.774;2023-04-01T20:04:26;99376.41;;;9.58;86.63
72961;BME280;61141;46.204;19.774;2023-04-01T20:07:39;99375.19;;;9.52;87.10
72961;BME280;61141;46.204;19.774;2023-04-01T20:11:00;99375.19;;;9.52;87.24
72961;BME280;61141;46.204;19.774;2023-04-01T20:17:43;99381.38;;;9.42;87.85
72961;BME280;61141;46.204;19.774;2023-04-01T20:21:03;99385.31;;;9.44;88.10
72961;BME280;61141;46.204;19.774;2023-04-01T20:27:21;99378.22;;;9.29;88.85
72961;BME280;61141;46.204;19.774;2023-04-01T20:30:59;99382.13;;;9.25;89.06
72961;BME280;61141;46.204;19.774;2023-04-01T20:37:39;99377.41;;;9.18;89.43
72961;BME280;61141;46.204;19.774;2023-04-01T20:40:48;99369.56;;;9.13;89.43
72961;BME280;61141;46.204;19.774;2023-04-01T20:44:08;99385.56;;;9.15;89.41
72961;BME280;61141;46.204;19.774;2023-04-01T20:50:44;99396.41;;;8.97;89.77
72961;BME280;61141;46.204;19.774;2023-04-01T20:57:38;99400.66;;;8.91;89.93
72961;BME280;61141;46.204;19.774;2023-04-01T21:31:37;99405.03;;;8.48;92.12
72961;BME280;61141;46.204;19.774;2023-04-01T22:06:33;99409.06;;;8.21;93.10
72961;BME280;61141;46.204;19.774;2023-04-01T22:10:00;99424.31;;;8.25;92.87
72961;BME280;61141;46.204;19.774;2023-04-01T22:13:20;99418.78;;;8.18;92.99
72961;BME280;61141;46.204;19.774;2023-04-01T22:26:27;99416.00;;;8.15;92.98
72961;BME280;61141;46.204;19.774;2023-04-01T22:32:47;99413.19;;;8.04;93.16
72961;BME280;61141;46.204;19.774;2023-04-01T22:36:03;99429.09;;;7.99;93.37
72961;BME280;61141;46.204;19.774;2023-04-01T22:49:15;99439.66;;;8.00;93.21
72961;BME280;61141;46.204;19.774;2023-04-01T22:55:34;99450.03;;;7.88;93.36
72961;BME280;61141;46.204;19.774;2023-04-01T22:59:02;99452.84;;;7.95;93.35
72961;BME280;61141;46.204;19.774;2023-04-01T23:02:17;99448.94;;;7.96;93.08
72961;BME280;61141;46.204;19.774;2023-04-01T23:05:22;99444.66;;;7.95;92.96
72961;BME280;61141;46.204;19.774;2023-04-01T23:12:03;99446.53;;;7.91;92.92
72961;BME280;61141;46.204;19.774;2023-04-01T23:15:12;99444.56;;;7.88;92.98
72961;BME280;61141;46.204;19.774;2023-04-01T23:18:27;99448.09;;;7.88;92.58
72961;BME280;61141;46.204;19.774;2023-04-01T23:21:38;99450.44;;;7.90;92.42
72961;BME280;61141;46.204;19.774;2023-04-01T23:31:34;99461.03;;;7.98;92.16
72961;BME280;61141;46.204;19.774;2023-04-01T23:34:37;99461.34;;;7.90;92.42
72961;BME280;61141;46.204;19.774;2023-04-01T23:37:40;99464.38;;;7.85;92.35
72961;BME280;61141;46.204;19.774;2023-04-01T23:40:43;99463.66;;;7.88;92.30
72961;BME280;61141;46.204;19.774;2023-04-01T23:43:53;99461.75;;;7.92;92.00
72961;BME280;61141;46.204;19.774;2023-04-01T23:46:58;99465.19;;;7.85;92.11
72961;BME280;61141;46.204;19.774;2023-04-01T23:50:23;99468.66;;;7.82;92.15
72961;BME280;61141;46.204;19.774;2023-04-01T23:53:31;99482.25;;;7.79;92.22
72961;BME280;61141;46.204;19.774;2023-04-01T23:56:41;99483.41;;;7.78;92.42
